sensor_id;sensor_type;location;lat;lon;timestamp;pressure;altitude;pressure_sealevel;temperature;humidity
43814;BME280;29669;55.706;37.656;2023-06-14T00:02:05;100333.72;;;14.42;43.81
43814;BME280;29669;55.706;37.656;2023-06-14T00:04:36;100339.13;;;14.41;43.80
43814;BME280;29669;55.706;37.656;2023-06-14T00:07:05;100332.47;;;14.38;43.88
43814;BME280;29669;55.706;37.656;2023-06-14T00:09:36;100334.75;;;14.33;43.99
43814;BME280;29669;55.706;37.656;2023-06-14T00:12:04;100341.94;;;14.31;44.21
43814;BME280;29669;55.706;37.656;2023-06-14T00:14:34;100337.09;;;14.28;44.11
43814;BME280;29669;55.706;37.656;2023-06-14T00:17:01;100335.13;;;14.22;44.27
43814;BME280;29669;55.706;37.656;2023-06-14T00:19:30;100337.09;;;14.20;44.52
43814;BME280;29669;55.706;37.656;2023-06-14T00:22:00;100340.06;;;14.17;44.53
43814;BME280;29669;55.706;37.656;2023-06-14T00:24:29;100336.81;;;14.15;44.69
43814;BME280;29669;55.706;37.656;2023-06-14T00:27:00;100346.25;;;14.16;44.75
43814;BME280;29669;55.706;37.656;2023-06-14T00:29:29;100348.22;;;14.14;44.80
43814;BME280;29669;55.706;37.656;2023-06-14T00:31:57;100342.34;;;14.12;44.96
43814;BME280;29669;55.706;37.656;2023-06-14T00:34:26;100346.13;;;14.09;45.20
43814;BME280;29669;55.706;37.656;2023-06-14T00:36:54;100329.47;;;14.10;45.40
43814;BME280;29669;55.706;37.656;2023-06-14T00:39:22;100340.09;;;14.09;45.29
43814;BME280;29669;55.706;37.656;2023-06-14T00:41:53;100344.50;;;14.08;45.39
43814;BME280;29669;55.706;37.656;2023-06-14T00:44:21;100344.03;;;14.05;45.22
43814;BME280;29669;55.706;37.656;2023-06-14T00:46:49;100333.13;;;14.01;45.37
43814;BME280;29669;55.706;37.656;2023-06-14T00:49:18;100340.31;;;13.99;45.48
43814;BME280;29669;55.706;37.656;2023-06-14T00:51:47;100341.31;;;13.98;45.65
43814;BME280;29669;55.706;37.656;2023-06-14T00:54:15;100337.69;;;13.99;45.62
43814;BME280;29669;55.706;37.656;2023-06-14T00:56:43;100339.00;;;14.03;45.66
43814;BME280;29669;55.706;37.656;2023-06-14T00:59:12;100338.16;;;14.03;45.79
43814;BME280;29669;55.706;37.656;2023-06-14T01:01:40;100342.06;;;14.07;45.86
43814;BME280;29669;55.706;37.656;2023-06-14T01:04:09;100336.66;;;14.08;45.73
43814;BME280;29669;55.706;37.656;2023-06-14T01:07:02;100339.09;;;14.10;45.88
43814;BME280;29669;55.706;37.656;2023-06-14T01:10:03;100330.94;;;14.13;45.85
43814;BME280;29669;55.706;37.656;2023-06-14T01:12:47;100335.78;;;14.24;45.67
43814;BME280;29669;55.706;37.656;2023-06-14T01:15:17;100343.59;;;14.32;45.54
43814;BME280;29669;55.706;37.656;2023-06-14T01:17:45;100340.28;;;14.38;45.45
43814;BME280;29669;55.706;37.656;2023-06-14T01:20:15;100340.22;;;14.46;45.46
43814;BME280;29669;55.706;37.656;2023-06-14T01:22:50;100342.59;;;14.56;45.46
43814;BME280;29669;55.706;37.656;2023-06-14T01:25:20;100339.81;;;14.57;45.23
43814;BME280;29669;55.706;37.656;2023-06-14T01:27:57;100344.97;;;14.65;45.21
43814;BME280;29669;55.706;37.656;2023-06-14T01:30:26;100338.59;;;14.68;45.10
43814;BME280;29669;55.706;37.656;2023-06-14T01:32:56;100341.84;;;14.70;45.19
43814;BME280;29669;55.706;37.656;2023-06-14T01:35:25;100343.28;;;14.72;45.36
43814;BME280;29669;55.706;37.656;2023-06-14T01:37:55;100354.38;;;14.74;45.07
43814;BME280;29669;55.706;37.656;2023-06-14T01:40:23;100345.56;;;14.75;45.14
43814;BME280;29669;55.706;37.656;2023-06-14T01:42:52;100354.31;;;14.82;44.95
43814;BME280;29669;55.706;37.656;2023-06-14T01:45:21;100356.75;;;14.84;44.97
43814;BME280;29669;55.706;37.656;2023-06-14T01:47:49;100343.53;;;14.85;45.14
43814;BME280;29669;55.706;37.656;2023-06-14T01:50:20;100346.06;;;14.93;44.95
43814;BME280;29669;55.706;37.656;2023-06-14T01:52:47;100349.75;;;14.99;44.94
43814;BME280;29669;55.706;37.656;2023-06-14T01:55:15;100345.03;;;15.02;44.81
43814;BME280;29669;55.706;37.656;2023-06-14T01:57:46;100353.97;;;15.08;44.94
43814;BME280;29669;55.706;37.656;2023-06-14T02:00:14;100349.00;;;15.13;44.89
43814;BME280;29669;55.706;37.656;2023-06-14T02:02:44;100347.47;;;15.19;44.49
43814;BME280;29669;55.706;37.656;2023-06-14T02:05:12;100345.13;;;15.24;44.75
43814;BME280;29669;55.706;37.656;2023-06-14T02:07:42;100354.88;;;15.30;44.46
43814;BME280;29669;55.706;37.656;2023-06-14T02:10:09;100345.69;;;15.34;44.64
43814;BME280;29669;55.706;37.656;2023-06-14T02:12:37;100349.38;;;15.39;44.35
43814;BME280;29669;55.706;37.656;2023-06-14T02:15:05;100344.28;;;15.46;44.45
43814;BME280;29669;55.706;37.656;2023-06-14T02:17:34;100339.94;;;15.53;44.35
43814;BME280;29669;55.706;37.656;2023-06-14T02:20:07;100340.31;;;15.64;44.22
43814;BME280;29669;55.706;37.656;2023-06-14T02:22:35;100341.00;;;15.73;44.19
43814;BME280;29669;55.706;37.656;2023-06-14T02:25:08;100341.94;;;15.80;44.37
43814;BME280;29669;55.706;37.656;2023-06-14T02:27:36;100337.22;;;15.90;44.12
43814;BME280;29669;55.706;37.656;2023-06-14T02:30:04;100344.72;;;15.93;44.04
43814;BME280;29669;55.706;37.656;2023-06-14T02:32:34;100344.72;;;15.93;43.97
43814;BME280;29669;55.706;37.656;2023-06-14T02:35:05;100345.34;;;15.95;43.77
43814;BME280;29669;55.706;37.656;2023-06-14T02:37:35;100352.81;;;15.98;44.06
43814;BME280;29669;55.706;37.656;2023-06-14T02:40:04;100346.59;;;15.99;44.13
43814;BME280;29669;55.706;37.656;2023-06-14T02:42:34;100343.59;;;16.02;44.21
43814;BME280;29669;55.706;37.656;2023-06-14T02:45:04;100342.25;;;16.06;44.04
43814;BME280;29669;55.706;37.656;2023-06-14T02:47:32;100345.13;;;16.11;44.11
43814;BME280;29669;55.706;37.656;2023-06-14T02:50:00;100356.03;;;16.15;43.96
43814;BME280;29669;55.706;37.656;2023-06-14T02:52:30;100363.16;;;16.21;43.85
43814;BME280;29669;55.706;37.656;2023-06-14T02:55:01;100358.00;;;16.27;43.74
43814;BME280;29669;55.706;37.656;2023-06-14T02:57:31;100348.16;;;16.29;43.94
43814;BME280;29669;55.706;37.656;2023-06-14T02:59:59;100357.50;;;16.38;43.77
43814;BME280;29669;55.706;37.656;2023-06-14T03:02:28;100356.78;;;16.44;43.74
43814;BME280;29669;55.706;37.656;2023-06-14T03:04:56;100361.91;;;16.52;43.61
43814;BME280;29669;55.706;37.656;2023-06-14T03:07:24;100364.59;;;16.59;43.59
43814;BME280;29669;55.706;37.656;2023-06-14T03:09:53;100362.22;;;16.64;43.35
43814;BME280;29669;55.706;37.656;2023-06-14T03:12:21;100354.63;;;16.69;43.57
43814;BME280;29669;55.706;37.656;2023-06-14T03:14:51;100360.75;;;16.76;43.40
43814;BME280;29669;55.706;37.656;2023-06-14T03:17:23;100355.94;;;16.79;43.09
43814;BME280;29669;55.706;37.656;2023-06-14T03:19:52;100369.72;;;16.88;43.33
43814;BME280;29669;55.706;37.656;2023-06-14T03:22:20;100357.06;;;16.91;43.11
43814;BME280;29669;55.706;37.656;2023-06-14T03:24:49;100349.81;;;16.93;43.11
43814;BME280;29669;55.706;37.656;2023-06-14T03:27:17;100348.88;;;17.01;43.07
43814;BME280;29669;55.706;37.656;2023-06-14T03:29:46;100349.91;;;17.07;43.14
43814;BME280;29669;55.706;37.656;2023-06-14T03:32:14;100359.03;;;17.11;43.01
43814;BME280;29669;55.706;37.656;2023-06-14T03:34:44;100348.75;;;17.16;42.89
43814;BME280;29669;55.706;37.656;2023-06-14T03:37:20;100343.75;;;17.21;43.01
43814;BME280;29669;55.706;37.656;2023-06-14T03:39:48;100364.41;;;17.30;42.87
43814;BME280;29669;55.706;37.656;2023-06-14T03:42:21;100352.72;;;17.33;42.94
43814;BME280;29669;55.706;37.656;2023-06-14T03:44:49;100352.94;;;17.38;42.75
43814;BME280;29669;55.706;37.656;2023-06-14T03:47:20;100347.69;;;17.38;42.53
43814;BME280;29669;55.706;37.656;2023-06-14T03:49:47;100357.44;;;17.44;42.57
43814;BME280;29669;55.706;37.656;2023-06-14T03:52:15;100350.41;;;17.51;42.67
43814;BME280;29669;55.706;37.656;2023-06-14T03:54:45;100358.56;;;17.56;42.36
43814;BME280;29669;55.706;37.656;2023-06-14T03:57:18;100352.28;;;17.57;42.34
43814;BME280;29669;55.706;37.656;2023-06-14T03:59:49;100359.38;;;17.63;42.24
43814;BME280;29669;55.706;37.656;2023-06-14T04:02:17;100373.97;;;17.72;41.95
43814;BME280;29669;55.706;37.656;2023-06-14T04:04:45;100360.47;;;17.75;41.70
43814;BME280;29669;55.706;37.656;2023-06-14T04:07:14;100359.44;;;17.76;41.68
43814;BME280;29669;55.706;37.656;2023-06-14T04:09:42;100348.19;;;17.82;41.56
43814;BME280;29669;55.706;37.656;2023-06-14T04:12:10;100353.06;;;17.92;41.51
43814;BME280;29669;55.706;37.656;2023-06-14T04:14:39;100345.59;;;17.95;41.55
43814;BME280;29669;55.706;37.656;2023-06-14T04:17:10;100356.31;;;18.00;41.50
43814;BME280;29669;55.706;37.656;2023-06-14T04:19:38;100352.69;;;18.01;41.08
43814;BME280;29669;55.706;37.656;2023-06-14T04:22:07;100355.53;;;18.06;41.27
43814;BME280;29669;55.706;37.656;2023-06-14T04:24:36;100355.59;;;18.13;41.12
43814;BME280;29669;55.706;37.656;2023-06-14T04:27:04;100353.78;;;18.20;40.96
43814;BME280;29669;55.706;37.656;2023-06-14T04:29:32;100353.38;;;18.23;40.90
43814;BME280;29669;55.706;37.656;2023-06-14T04:32:04;100356.84;;;18.30;40.92
43814;BME280;29669;55.706;37.656;2023-06-14T04:34:33;100349.78;;;18.37;40.77
43814;BME280;29669;55.706;37.656;2023-06-14T04:37:03;100348.19;;;18.42;40.64
43814;BME280;29669;55.706;37.656;2023-06-14T04:39:36;100350.03;;;18.48;40.52
43814;BME280;29669;55.706;37.656;2023-06-14T04:42:04;100349.63;;;18.51;40.47
43814;BME280;29669;55.706;37.656;2023-06-14T04:44:35;100351.47;;;18.57;40.37
43814;BME280;29669;55.706;37.656;2023-06-14T04:47:05;100348.03;;;18.63;40.21
43814;BME280;29669;55.706;37.656;2023-06-14T04:49:35;100343.19;;;18.67;39.98
43814;BME280;29669;55.706;37.656;2023-06-14T04:52:05;100349.47;;;18.72;39.98
43814;BME280;29669;55.706;37.656;2023-06-14T04:54:41;100348.66;;;18.78;40.01
43814;BME280;29669;55.706;37.656;2023-06-14T04:57:10;100347.84;;;18.85;39.79
43814;BME280;29669;55.706;37.656;2023-06-14T04:59:43;100351.09;;;18.93;39.52
43814;BME280;29669;55.706;37.656;2023-06-14T05:02:11;100339.53;;;19.01;39.46
43814;BME280;29669;55.706;37.656;2023-06-14T05:04:39;100337.53;;;19.03;39.39
43814;BME280;29669;55.706;37.656;2023-06-14T05:07:08;100349.44;;;19.12;39.43
43814;BME280;29669;55.706;37.656;2023-06-14T05:09:36;100342.56;;;19.17;39.27
43814;BME280;29669;55.706;37.656;2023-06-14T05:12:05;100344.59;;;19.22;38.98
43814;BME280;29669;55.706;37.656;2023-06-14T05:14:35;100341.97;;;19.28;38.94
43814;BME280;29669;55.706;37.656;2023-06-14T05:17:05;100348.66;;;19.37;38.88
43814;BME280;29669;55.706;37.656;2023-06-14T05:19:33;100346.00;;;19.44;38.61
43814;BME280;29669;55.706;37.656;2023-06-14T05:22:01;100338.09;;;19.50;38.60
43814;BME280;29669;55.706;37.656;2023-06-14T05:24:30;100336.47;;;19.56;38.31
43814;BME280;29669;55.706;37.656;2023-06-14T05:27:00;100338.06;;;19.63;37.81
43814;BME280;29669;55.706;37.656;2023-06-14T05:29:30;100337.22;;;19.69;37.83
43814;BME280;29669;55.706;37.656;2023-06-14T05:31:58;100337.00;;;19.78;37.57
43814;BME280;29669;55.706;37.656;2023-06-14T05:34:26;100334.94;;;19.80;37.29
43814;BME280;29669;55.706;37.656;2023-06-14T05:36:54;100333.72;;;19.89;37.33
43814;BME280;29669;55.706;37.656;2023-06-14T05:39:22;100337.50;;;19.99;36.91
43814;BME280;29669;55.706;37.656;2023-06-14T05:41:51;100345.19;;;20.07;36.75
43814;BME280;29669;55.706;37.656;2023-06-14T05:44:19;100339.28;;;20.18;36.48
43814;BME280;29669;55.706;37.656;2023-06-14T05:46:46;100345.31;;;20.25;36.23
43814;BME280;29669;55.706;37.656;2023-06-14T05:49:14;100335.13;;;20.35;36.17
43814;BME280;29669;55.706;37.656;2023-06-14T05:51:42;100342.78;;;20.43;36.01
43814;BME280;29669;55.706;37.656;2023-06-14T05:54:09;100338.28;;;20.50;35.81
43814;BME280;29669;55.706;37.656;2023-06-14T05:56:37;100352.81;;;20.59;35.55
43814;BME280;29669;55.706;37.656;2023-06-14T05:59:05;100343.44;;;20.63;35.27
43814;BME280;29669;55.706;37.656;2023-06-14T06:01:32;100345.03;;;20.71;34.72
43814;BME280;29669;55.706;37.656;2023-06-14T06:04:01;100352.69;;;20.79;34.78
43814;BME280;29669;55.706;37.656;2023-06-14T06:06:29;100353.06;;;20.83;34.31
43814;BME280;29669;55.706;37.656;2023-06-14T06:08:57;100347.75;;;20.89;34.15
43814;BME280;29669;55.706;37.656;2023-06-14T06:11:25;100346.44;;;20.98;33.80
43814;BME280;29669;55.706;37.656;2023-06-14T06:13:56;100339.50;;;21.04;33.73
43814;BME280;29669;55.706;37.656;2023-06-14T06:16:24;100341.06;;;21.11;33.58
43814;BME280;29669;55.706;37.656;2023-06-14T06:18:52;100341.00;;;21.18;33.43
43814;BME280;29669;55.706;37.656;2023-06-14T06:21:20;100344.41;;;21.25;33.11
43814;BME280;29669;55.706;37.656;2023-06-14T06:23:47;100339.25;;;21.30;32.83
43814;BME280;29669;55.706;37.656;2023-06-14T06:26:15;100342.50;;;21.32;32.70
43814;BME280;29669;55.706;37.656;2023-06-14T06:28:43;100343.22;;;21.39;32.73
43814;BME280;29669;55.706;37.656;2023-06-14T06:31:11;100332.84;;;21.44;32.41
43814;BME280;29669;55.706;37.656;2023-06-14T06:33:39;100339.44;;;21.53;32.18
43814;BME280;29669;55.706;37.656;2023-06-14T06:36:07;100345.91;;;21.57;31.99
43814;BME280;29669;55.706;37.656;2023-06-14T06:38:36;100331.28;;;21.54;32.10
43814;BME280;29669;55.706;37.656;2023-06-14T06:41:03;100343.84;;;21.59;32.01
43814;BME280;29669;55.706;37.656;2023-06-14T06:43:31;100335.69;;;21.61;31.70
43814;BME280;29669;55.706;37.656;2023-06-14T06:45:59;100346.16;;;21.67;31.39
43814;BME280;29669;55.706;37.656;2023-06-14T06:48:27;100331.38;;;21.66;31.65
43814;BME280;29669;55.706;37.656;2023-06-14T06:50:54;100333.56;;;21.69;31.43
43814;BME280;29669;55.706;37.656;2023-06-14T06:53:22;100325.44;;;21.71;31.19
43814;BME280;29669;55.706;37.656;2023-06-14T06:56:05;100330.84;;;21.76;31.15
43814;BME280;29669;55.706;37.656;2023-06-14T06:58:33;100337.53;;;21.78;31.07
43814;BME280;29669;55.706;37.656;2023-06-14T07:01:00;100334.25;;;21.83;31.21
43814;BME280;29669;55.706;37.656;2023-06-14T07:03:28;100342.69;;;21.91;31.07
43814;BME280;29669;55.706;37.656;2023-06-14T07:05:56;100322.72;;;21.95;30.87
43814;BME280;29669;55.706;37.656;2023-06-14T07:08:24;100331.19;;;21.97;30.77
43814;BME280;29669;55.706;37.656;2023-06-14T07:10:51;100314.78;;;21.95;30.50
43814;BME280;29669;55.706;37.656;2023-06-14T07:13:19;100330.41;;;21.97;30.40
43814;BME280;29669;55.706;37.656;2023-06-14T07:15:47;100330.78;;;22.00;30.66
43814;BME280;29669;55.706;37.656;2023-06-14T07:18:15;100323.56;;;22.07;30.54
43814;BME280;29669;55.706;37.656;2023-06-14T07:20:43;100327.13;;;22.13;30.57
43814;BME280;29669;55.706;37.656;2023-06-14T07:23:10;100317.28;;;22.20;30.40
43814;BME280;29669;55.706;37.656;2023-06-14T07:25:38;100324.91;;;22.28;30.36
43814;BME280;29669;55.706;37.656;2023-06-14T07:28:07;100322.97;;;22.35;30.41
43814;BME280;29669;55.706;37.656;2023-06-14T07:30:35;100321.16;;;22.47;30.36
43814;BME280;29669;55.706;37.656;2023-06-14T07:33:03;100320.25;;;22.53;30.18
43814;BME280;29669;55.706;37.656;2023-06-14T07:35:31;100323.03;;;22.58;30.00
43814;BME280;29669;55.706;37.656;2023-06-14T07:37:58;100321.78;;;22.61;29.83
43814;BME280;29669;55.706;37.656;2023-06-14T07:40:26;100319.72;;;22.63;29.71
43814;BME280;29669;55.706;37.656;2023-06-14T07:42:54;100317.56;;;22.60;29.59
43814;BME280;29669;55.706;37.656;2023-06-14T07:45:22;100323.78;;;22.65;29.69
43814;BME280;29669;55.706;37.656;2023-06-14T07:47:50;100316.50;;;22.61;29.41
43814;BME280;29669;55.706;37.656;2023-06-14T07:50:19;100326.50;;;22.59;29.54
43814;BME280;29669;55.706;37.656;2023-06-14T08:10:07;100315.28;;;22.75;nan
43814;BME280;29669;55.706;37.656;2023-06-14T08:12:36;100315.38;;;22.80;nan
43814;BME280;29669;55.706;37.656;2023-06-14T08:15:05;100313.66;;;22.85;nan
43814;BME280;29669;55.706;37.656;2023-06-14T08:17:41;100303.53;;;22.82;nan
43814;BME280;29669;55.706;37.656;2023-06-14T08:20:10;100309.50;;;22.78;nan
43814;BME280;29669;55.706;37.656;2023-06-14T08:22:38;100314.56;;;22.79;nan
43814;BME280;29669;55.706;37.656;2023-06-14T08:25:08;100314.47;;;22.86;nan
43814;BME280;29669;55.706;37.656;2023-06-14T08:27:36;100317.13;;;22.97;nan
43814;BME280;29669;55.706;37.656;2023-06-14T08:30:04;100311.13;;;23.02;nan
43814;BME280;29669;55.706;37.656;2023-06-14T08:32:32;100309.63;;;23.06;nan
43814;BME280;29669;55.706;37.656;2023-06-14T08:35:00;100318.41;;;23.18;nan
43814;BME280;29669;55.706;37.656;2023-06-14T08:37:45;100308.38;;;23.20;nan
43814;BME280;29669;55.706;37.656;2023-06-14T08:40:22;100308.72;;;23.12;nan
43814;BME280;29669;55.706;37.656;2023-06-14T08:42:52;100308.38;;;23.08;nan
43814;BME280;29669;55.706;37.656;2023-06-14T08:45:21;100308.25;;;23.15;nan
43814;BME280;29669;55.706;37.656;2023-06-14T08:47:53;100310.78;;;23.21;nan
43814;BME280;29669;55.706;37.656;2023-06-14T08:50:26;100297.88;;;23.25;nan
43814;BME280;29669;55.706;37.656;2023-06-14T08:53:00;100295.00;;;23.26;nan
43814;BME280;29669;55.706;37.656;2023-06-14T08:55:30;100298.13;;;23.35;nan
43814;BME280;29669;55.706;37.656;2023-06-14T08:58:01;100277.28;;;23.39;nan
43814;BME280;29669;55.706;37.656;2023-06-14T09:00:31;100291.78;;;23.48;nan
43814;BME280;29669;55.706;37.656;2023-06-14T09:03:01;100287.13;;;23.55;nan
43814;BME280;29669;55.706;37.656;2023-06-14T09:05:29;100291.06;;;23.64;nan
43814;BME280;29669;55.706;37.656;2023-06-14T09:07:56;100286.22;;;23.61;nan
43814;BME280;29669;55.706;37.656;2023-06-14T09:10:32;100286.53;;;23.64;nan
43814;BME280;29669;55.706;37.656;2023-06-14T09:13:02;100281.16;;;23.59;nan
43814;BME280;29669;55.706;37.656;2023-06-14T09:15:30;100287.47;;;23.58;nan
43814;BME280;29669;55.706;37.656;2023-06-14T09:18:01;100280.34;;;23.59;nan
43814;BME280;29669;55.706;37.656;2023-06-14T09:20:30;100276.19;;;23.63;nan
43814;BME280;29669;55.706;37.656;2023-06-14T09:23:00;100276.25;;;23.68;nan
43814;BME280;29669;55.706;37.656;2023-06-14T09:25:28;100277.00;;;23.63;nan
43814;BME280;29669;55.706;37.656;2023-06-14T09:28:09;100267.75;;;23.66;nan
43814;BME280;29669;55.706;37.656;2023-06-14T09:30:38;100271.78;;;23.68;nan
43814;BME280;29669;55.706;37.656;2023-06-14T09:33:06;100279.94;;;23.78;nan
43814;BME280;29669;55.706;37.656;2023-06-14T09:35:34;100269.41;;;23.83;nan
43814;BME280;29669;55.706;37.656;2023-06-14T09:38:02;100277.56;;;23.93;nan
43814;BME280;29669;55.706;37.656;2023-06-14T09:40:34;100265.91;;;23.94;nan
43814;BME280;29669;55.706;37.656;2023-06-14T09:43:07;100274.75;;;24.00;nan
43814;BME280;29669;55.706;37.656;2023-06-14T09:45:39;100266.13;;;24.04;nan
43814;BME280;29669;55.706;37.656;2023-06-14T09:48:07;100270.25;;;24.12;nan
43814;BME280;29669;55.706;37.656;2023-06-14T09:50:39;100264.44;;;24.15;nan
43814;BME280;29669;55.706;37.656;2023-06-14T09:53:10;100269.22;;;24.13;nan
43814;BME280;29669;55.706;37.656;2023-06-14T09:55:40;100260.53;;;24.17;nan
43814;BME280;29669;55.706;37.656;2023-06-14T09:58:10;100261.66;;;24.21;nan
43814;BME280;29669;55.706;37.656;2023-06-14T10:00:40;100248.78;;;24.30;nan
43814;BME280;29669;55.706;37.656;2023-06-14T10:03:12;100258.00;;;24.39;nan
43814;BME280;29669;55.706;37.656;2023-06-14T10:05:45;100248.72;;;24.42;nan
43814;BME280;29669;55.706;37.656;2023-06-14T10:08:16;100243.41;;;24.42;nan
43814;BME280;29669;55.706;37.656;2023-06-14T10:10:45;100246.06;;;24.42;nan
43814;BME280;29669;55.706;37.656;2023-06-14T10:13:14;100240.53;;;24.43;nan
43814;BME280;29669;55.706;37.656;2023-06-14T10:15:58;100236.56;;;24.46;nan
43814;BME280;29669;55.706;37.656;2023-06-14T10:21:18;100230.00;;;24.48;nan
43814;BME280;29669;55.706;37.656;2023-06-14T10:23:50;100235.06;;;24.50;nan
43814;BME280;29669;55.706;37.656;2023-06-14T10:26:22;100236.75;;;24.56;nan
43814;BME280;29669;55.706;37.656;2023-06-14T10:29:09;100228.59;;;24.62;nan
43814;BME280;29669;55.706;37.656;2023-06-14T10:31:50;100231.25;;;24.62;nan
43814;BME280;29669;55.706;37.656;2023-06-14T10:34:29;100224.03;;;24.58;nan
43814;BME280;29669;55.706;37.656;2023-06-14T10:37:05;100231.69;;;24.54;nan
43814;BME280;29669;55.706;37.656;2023-06-14T10:39:43;100219.28;;;24.60;nan
43814;BME280;29669;55.706;37.656;2023-06-14T10:42:14;100218.53;;;24.64;nan
43814;BME280;29669;55.706;37.656;2023-06-14T10:44:45;100220.56;;;24.74;nan
43814;BME280;29669;55.706;37.656;2023-06-14T10:49:52;100213.25;;;24.81;nan
43814;BME280;29669;55.706;37.656;2023-06-14T10:52:22;100220.16;;;24.82;nan
43814;BME280;29669;55.706;37.656;2023-06-14T10:55:11;100204.53;;;24.85;nan
43814;BME280;29669;55.706;37.656;2023-06-14T10:57:56;100205.72;;;24.94;nan
43814;BME280;29669;55.706;37.656;2023-06-14T11:00:28;100204.44;;;24.97;nan
43814;BME280;29669;55.706;37.656;2023-06-14T11:05:49;100193.19;;;25.11;nan
43814;BME280;29669;55.706;37.656;2023-06-14T11:11:16;100198.63;;;25.22;nan
43814;BME280;29669;55.706;37.656;2023-06-14T11:13:45;100191.91;;;25.14;nan
43814;BME280;29669;55.706;37.656;2023-06-14T11:16:17;100195.53;;;25.08;nan
43814;BME280;29669;55.706;37.656;2023-06-14T11:18:47;100199.19;;;25.02;nan
43814;BME280;29669;55.706;37.656;2023-06-14T11:21:18;100191.16;;;24.97;nan
43814;BME280;29669;55.706;37.656;2023-06-14T11:23:52;100185.44;;;25.05;nan
43814;BME280;29669;55.706;37.656;2023-06-14T11:26:29;100181.03;;;25.15;nan
43814;BME280;29669;55.706;37.656;2023-06-14T11:28:59;100182.00;;;25.31;nan
43814;BME280;29669;55.706;37.656;2023-06-14T11:31:28;100180.22;;;25.37;nan
43814;BME280;29669;55.706;37.656;2023-06-14T11:33:58;100191.44;;;25.39;nan
43814;BME280;29669;55.706;37.656;2023-06-14T11:36:31;100189.00;;;25.37;nan
43814;BME280;29669;55.706;37.656;2023-06-14T11:39:03;100182.00;;;25.31;nan
43814;BME280;29669;55.706;37.656;2023-06-14T11:41:39;100190.03;;;25.36;nan
43814;BME280;29669;55.706;37.656;2023-06-14T11:44:07;100178.75;;;25.46;nan
43814;BME280;29669;55.706;37.656;2023-06-14T11:46:35;100180.63;;;25.45;nan
43814;BME280;29669;55.706;37.656;2023-06-14T11:49:04;100172.28;;;25.63;nan
43814;BME280;29669;55.706;37.656;2023-06-14T11:51:33;100160.38;;;25.97;nan
43814;BME280;29669;55.706;37.656;2023-06-14T11:54:05;100163.56;;;26.26;nan
43814;BME280;29669;55.706;37.656;2023-06-14T11:56:33;100156.41;;;26.32;nan
43814;BME280;29669;55.706;37.656;2023-06-14T11:59:03;100163.38;;;26.38;nan
43814;BME280;29669;55.706;37.656;2023-06-14T12:01:36;100165.78;;;26.39;nan
43814;BME280;29669;55.706;37.656;2023-06-14T12:04:06;100160.72;;;26.38;nan
43814;BME280;29669;55.706;37.656;2023-06-14T12:06:34;100161.75;;;26.32;nan
43814;BME280;29669;55.706;37.656;2023-06-14T12:09:07;100159.06;;;26.32;nan
43814;BME280;29669;55.706;37.656;2023-06-14T12:11:41;100147.97;;;26.40;nan
43814;BME280;29669;55.706;37.656;2023-06-14T12:14:09;100150.13;;;26.48;nan
43814;BME280;29669;55.706;37.656;2023-06-14T12:16:39;100145.88;;;26.52;nan
43814;BME280;29669;55.706;37.656;2023-06-14T12:19:16;100144.88;;;26.63;nan
43814;BME280;29669;55.706;37.656;2023-06-14T12:21:47;100140.72;;;26.72;nan
43814;BME280;29669;55.706;37.656;2023-06-14T12:24:19;100138.50;;;26.64;nan
43814;BME280;29669;55.706;37.656;2023-06-14T12:26:47;100147.03;;;26.66;nan
43814;BME280;29669;55.706;37.656;2023-06-14T12:29:15;100133.19;;;26.64;nan
43814;BME280;29669;55.706;37.656;2023-06-14T12:31:43;100144.91;;;26.68;nan
43814;BME280;29669;55.706;37.656;2023-06-14T12:34:10;100139.13;;;26.76;nan
43814;BME280;29669;55.706;37.656;2023-06-14T12:36:38;100130.72;;;27.09;nan
43814;BME280;29669;55.706;37.656;2023-06-14T12:39:12;100128.72;;;28.42;nan
43814;BME280;29669;55.706;37.656;2023-06-14T12:41:40;100121.63;;;30.70;nan
43814;BME280;29669;55.706;37.656;2023-06-14T12:44:11;100115.22;;;32.74;nan
43814;BME280;29669;55.706;37.656;2023-06-14T12:46:41;100118.63;;;34.17;nan
43814;BME280;29669;55.706;37.656;2023-06-14T12:49:11;100115.13;;;35.03;nan
43814;BME280;29669;55.706;37.656;2023-06-14T12:51:40;100116.72;;;35.90;nan
43814;BME280;29669;55.706;37.656;2023-06-14T12:54:08;100112.69;;;36.59;nan
43814;BME280;29669;55.706;37.656;2023-06-14T12:56:36;100113.78;;;36.96;nan
43814;BME280;29669;55.706;37.656;2023-06-14T12:59:04;100107.63;;;37.08;nan
43814;BME280;29669;55.706;37.656;2023-06-14T13:01:31;100108.41;;;37.29;nan
43814;BME280;29669;55.706;37.656;2023-06-14T13:03:59;100109.28;;;37.74;nan
43814;BME280;29669;55.706;37.656;2023-06-14T13:06:27;100110.47;;;38.30;nan
43814;BME280;29669;55.706;37.656;2023-06-14T13:08:57;100107.69;;;38.18;nan
43814;BME280;29669;55.706;37.656;2023-06-14T13:11:27;100106.91;;;38.05;nan
43814;BME280;29669;55.706;37.656;2023-06-14T13:13:55;100107.13;;;38.00;nan
43814;BME280;29669;55.706;37.656;2023-06-14T13:16:23;100107.09;;;37.88;nan
43814;BME280;29669;55.706;37.656;2023-06-14T13:18:51;100101.50;;;38.17;nan
43814;BME280;29669;55.706;37.656;2023-06-14T13:21:19;100089.38;;;39.11;nan
43814;BME280;29669;55.706;37.656;2023-06-14T13:23:47;100096.56;;;40.02;nan
43814;BME280;29669;55.706;37.656;2023-06-14T13:26:14;100095.94;;;40.56;nan
43814;BME280;29669;55.706;37.656;2023-06-14T13:28:42;100097.91;;;41.09;nan
43814;BME280;29669;55.706;37.656;2023-06-14T13:31:10;100093.06;;;41.37;nan